| time (UTC) | temp C | wind direction | speed KPH | gust KPH | rain 1hr cm | rain 24hr cm | rain mn cm | humidity % | barometer mb |
| 20260508024531 | 8 | 338 | 6.4 | 14.5 | 0.00 | 0.20 | 0.13 | 51 | 1007.3 |
| 20260508023045 | 8 | 310 | 6.4 | 17.7 | 0.00 | 0.20 | 0.13 | 52 | 1007.1 |
| 20260508021519 | 9 | 321 | 6.4 | 16.1 | 0.00 | 0.20 | 0.13 | 51 | 1007.0 |
| 20260508020047 | 10 | 317 | 9.7 | 17.7 | 0.00 | 0.20 | 0.13 | 48 | 1007.0 |
| 20260508014515 | 10 | 333 | 12.9 | 20.9 | 0.00 | 0.20 | 0.13 | 47 | 1006.8 |
| 20260508013047 | 10 | 321 | 11.3 | 19.3 | 0.00 | 0.20 | 0.13 | 47 | 1006.5 |
| 20260508011514 | 11 | 317 | 14.5 | 19.3 | 0.00 | 0.20 | 0.13 | 45 | 1006.4 |
| 20260508010043 | 11 | 329 | 6.4 | 17.7 | 0.00 | 0.20 | 0.13 | 45 | 1006.2 |
| 20260508004511 | 11 | 348 | 8.0 | 20.9 | 0.00 | 0.20 | 0.13 | 46 | 1005.9 |
| 20260508003044 | 11 | 337 | 6.4 | 16.1 | 0.00 | 0.20 | 0.13 | 47 | 1005.7 |
| 20260508001502 | 11 | 321 | 9.7 | 20.9 | 0.00 | 0.20 | 0.13 | 44 | 1005.5 |
| 20260508000031 | 12 | 316 | 6.4 | 14.5 | 0.00 | 0.20 | 0.13 | 42 | 1005.2 |
| 20260507234600 | 12 | 327 | 8.0 | 16.1 | 0.00 | 0.20 | 0.13 | 41 | 1005.1 |
| 20260507233039 | 12 | 310 | 9.7 | 24.1 | 0.00 | 0.20 | 0.13 | 42 | 1004.9 |
| 20260507231601 | 13 | 347 | 6.4 | 19.3 | 0.00 | 0.20 | 0.13 | 41 | 1004.8 |
| 20260507230029 | 13 | 296 | 4.8 | 14.5 | 0.00 | 0.20 | 0.13 | 41 | 1004.6 |
| 20260507224603 | 13 | 292 | 4.8 | 9.7 | 0.00 | 0.20 | 0.13 | 41 | 1004.4 |
| 20260507223024 | 13 | 324 | 4.8 | 14.5 | 0.00 | 0.20 | 0.13 | 42 | 1004.3 |
| 20260507221554 | 13 | 319 | 3.2 | 19.3 | 0.00 | 0.20 | 0.13 | 43 | 1004.1 |
| 20260507220021 | 13 | 302 | 3.2 | 17.7 | 0.00 | 0.25 | 0.13 | 44 | 1004.1 |
| 20260507214603 | 15 | 289 | 6.4 | 19.3 | 0.00 | 0.25 | 0.13 | 41 | 1004.1 |
| 20260507213013 | 15 | 318 | 12.9 | 22.5 | 0.00 | 0.25 | 0.13 | 38 | 1004.0 |
| 20260507211545 | 15 | 317 | 11.3 | 17.7 | 0.00 | 0.25 | 0.13 | 38 | 1004.1 |
| 20260507210012 | 16 | 319 | 14.5 | 25.7 | 0.00 | 0.56 | 0.13 | 36 | 1003.9 |
| 20260507204541 | 15 | 272 | 4.8 | 9.7 | 0.00 | 0.56 | 0.13 | 38 | 1003.8 |
| 20260507203011 | 16 | 302 | 8.0 | 24.1 | 0.00 | 0.56 | 0.13 | 38 | 1003.8 |
| 20260507201530 | 16 | 320 | 9.7 | 33.8 | 0.00 | 0.56 | 0.13 | 37 | 1003.7 |
| 20260507200110 | 16 | 265 | 4.8 | 20.9 | 0.00 | 0.56 | 0.13 | 37 | 1003.8 |
| 20260507194529 | 16 | 342 | 12.9 | 29.0 | 0.00 | 0.91 | 0.13 | 41 | 1003.9 |
| 20260507193100 | 16 | 311 | 12.9 | 32.2 | 0.00 | 0.91 | 0.13 | 40 | 1003.9 |
| 20260507191527 | 15 | 304 | 12.9 | 33.8 | 0.00 | 0.91 | 0.13 | 41 | 1004.1 |
| 20260507190103 | 15 | 333 | 12.9 | 24.1 | 0.00 | 1.22 | 0.13 | 42 | 1004.1 |
| 20260507184522 | 15 | 285 | 9.7 | 29.0 | 0.00 | 1.22 | 0.13 | 44 | 1004.2 |
| 20260507183051 | 15 | 317 | 8.0 | 29.0 | 0.00 | 1.22 | 0.13 | 50 | 1004.3 |
| 20260507181524 | 15 | 279 | 14.5 | 32.2 | 0.00 | 1.22 | 0.13 | 46 | 1004.3 |
| 20260507180050 | 15 | 280 | 3.2 | 14.5 | 0.00 | 1.22 | 0.13 | 53 | 1004.2 |
| 20260507174515 | 16 | 316 | 11.3 | 33.8 | 0.00 | 1.22 | 0.13 | 50 | 1004.3 |
| 20260507173041 | 15 | 281 | 6.4 | 19.3 | 0.00 | 1.22 | 0.13 | 50 | 1004.3 |
| 20260507171510 | 14 | 323 | 9.7 | 19.3 | 0.00 | 1.22 | 0.13 | 56 | 1004.4 |
| 20260507170038 | 15 | 292 | 11.3 | 24.1 | 0.00 | 1.22 | 0.13 | 57 | 1004.6 |
| 20260507164508 | 15 | 300 | 8.0 | 19.3 | 0.00 | 1.22 | 0.13 | 55 | 1004.8 |
| 20260507163038 | 15 | 246 | 4.8 | 12.9 | 0.00 | 1.22 | 0.13 | 56 | 1004.7 |
| 20260507161555 | 15 | 191 | 3.2 | 9.7 | 0.00 | 1.22 | 0.13 | 59 | 1004.8 |
| 20260507160024 | 14 | 270 | 3.2 | 9.7 | 0.00 | 1.22 | 0.13 | 55 | 1005.2 |
| 20260507154553 | 14 | 285 | 6.4 | 14.5 | 0.00 | 1.22 | 0.13 | 56 | 1005.3 |
| 20260507153017 | 14 | 329 | 6.4 | 9.7 | 0.00 | 1.22 | 0.13 | 58 | 1005.5 |
| 20260507151547 | 14 | 293 | 3.2 | 12.9 | 0.00 | 1.22 | 0.13 | 60 | 1005.6 |
| 20260507150023 | 13 | 342 | 3.2 | 16.1 | 0.00 | 1.22 | 0.13 | 58 | 1005.5 |
| 20260507144543 | 14 | 314 | 3.2 | 12.9 | 0.00 | 1.22 | 0.13 | 62 | 1005.6 |
| 20260507143000 | 13 | 249 | 3.2 | 9.7 | 0.00 | 1.22 | 0.13 | 65 | 1005.7 |
| 20260507141521 | 13 | 302 | 3.2 | 8.0 | 0.00 | 1.22 | 0.13 | 71 | 1005.8 |
| 20260507140052 | 12 | 317 | 4.8 | 16.1 | 0.00 | 1.22 | 0.13 | 72 | 1006.0 |
| 20260507134514 | 12 | 306 | 3.2 | 12.9 | 0.00 | 1.22 | 0.13 | 76 | 1006.0 |
| 20260507133100 | 12 | 313 | 3.2 | 12.9 | 0.00 | 1.22 | 0.13 | 77 | 1006.2 |
| 20260507131508 | 11 | 270 | 1.6 | 9.7 | 0.00 | 1.22 | 0.13 | 78 | 1006.4 |
| 20260507130047 | 10 | 314 | 6.4 | 14.5 | 0.00 | 1.22 | 0.13 | 76 | 1006.4 |
| 20260507124506 | 10 | 315 | 9.7 | 17.7 | 0.00 | 1.22 | 0.13 | 76 | 1006.4 |
| 20260507123035 | 10 | 283 | 8.0 | 16.1 | 0.00 | 1.22 | 0.13 | 78 | 1006.4 |
| 20260507121606 | 10 | 296 | 3.2 | 14.5 | 0.00 | 1.22 | 0.13 | 82 | 1006.4 |
| 20260507120024 | 9 | 293 | 3.2 | 12.9 | 0.00 | 1.22 | 0.13 | 84 | 1006.4 |
| 20260507114627 | 8 | 292 | 1.6 | 11.3 | 0.00 | 1.22 | 0.13 | 89 | 1006.5 |
| 20260507113016 | 7 | 290 | 3.2 | 6.4 | 0.00 | 1.22 | 0.13 | 92 | 1006.1 |
| 20260507111547 | 7 | 310 | 1.6 | 6.4 | 0.00 | 1.22 | 0.13 | 93 | 1006.5 |
| 20260507110016 | 7 | 294 | 3.2 | 11.3 | 0.00 | 1.22 | 0.13 | 93 | 1006.9 |
| 20260507104546 | 7 | 315 | 3.2 | 6.4 | 0.00 | 1.22 | 0.13 | 93 | 1006.7 |
| 20260507103017 | 7 | 303 | 1.6 | 4.8 | 0.00 | 1.22 | 0.13 | 93 | 1006.3 |
| 20260507101548 | 7 | 297 | 1.6 | 8.0 | 0.00 | 1.22 | 0.13 | 93 | 1006.7 |
| 20260507100014 | 7 | 304 | 1.6 | 4.8 | 0.00 | 1.22 | 0.13 | 93 | 1006.4 |
| 20260507094542 | 7 | 314 | 1.6 | 6.4 | 0.00 | 1.22 | 0.13 | 92 | 1006.2 |
| 20260507093012 | 7 | 314 | 3.2 | 9.7 | 0.00 | 1.22 | 0.13 | 91 | 1006.1 |
| 20260507091544 | 7 | 306 | 3.2 | 9.7 | 0.00 | 1.22 | 0.13 | 92 | 1005.9 |
| 20260507090010 | 7 | 331 | 3.2 | 9.7 | 0.00 | 1.22 | 0.13 | 91 | 1006.1 |
| 20260507084531 | 8 | 282 | 1.6 | 9.7 | 0.00 | 1.22 | 0.13 | 91 | 1006.0 |
| 20260507083057 | 8 | 340 | 6.4 | 20.9 | 0.00 | 1.22 | 0.13 | 92 | 1006.2 |
| 20260507081522 | 8 | 320 | 6.4 | 12.9 | 0.00 | 1.22 | 0.13 | 94 | 1005.7 |
| 20260507080104 | 8 | 311 | 4.8 | 9.7 | 0.00 | 1.22 | 0.13 | 95 | 1006.0 |
| 20260507074514 | 8 | 331 | 9.7 | 14.5 | 0.00 | 1.22 | 0.13 | 94 | 1005.5 |
| 20260507073046 | 8 | 323 | 6.4 | 14.5 | 0.00 | 1.22 | 0.13 | 94 | 1005.7 |
| 20260507071511 | 8 | 339 | 8.0 | 16.1 | 0.00 | 1.22 | 0.13 | 94 | 1005.6 |
| 20260507070041 | 8 | 315 | 3.2 | 12.9 | 0.00 | 1.22 | 0.13 | 95 | 1005.6 |
| 20260507064503 | 8 | 309 | 3.2 | 12.9 | 0.00 | 1.22 | 0.13 | 95 | 1005.2 |
| 20260507063029 | 8 | 296 | 3.2 | 8.0 | 0.00 | 1.22 | 0.13 | 95 | 1005.0 |
| 20260507061600 | 8 | 298 | 3.2 | 9.7 | 0.00 | 1.22 | 0.13 | 95 | 1005.0 |
| 20260507060021 | 8 | 319 | 4.8 | 9.7 | 0.00 | 1.22 | 0.13 | 94 | 1004.7 |
| 20260507054551 | 9 | 335 | 3.2 | 17.7 | 0.00 | 1.22 | 0.13 | 94 | 1004.9 |
| 20260507053017 | 9 | 328 | 12.9 | 22.5 | 0.03 | 1.22 | 0.13 | 94 | 1004.4 |
| 20260507051540 | 10 | 315 | 14.5 | 30.6 | 0.03 | 1.22 | 0.13 | 95 | 1004.7 |
| 20260507050002 | 10 | 355 | 4.8 | 17.7 | 0.13 | 1.22 | 0.13 | 96 | 1004.5 |
| 20260507044524 | 10 | 337 | 8.0 | 27.4 | 0.18 | 1.22 | 0.13 | 96 | 1004.5 |
| 20260507043049 | 12 | 317 | 17.7 | 33.8 | 0.15 | 1.19 | 0.10 | 97 | 1004.3 |
| 20260507041601 | 12 | 292 | 8.0 | 20.9 | 0.15 | 1.19 | 0.10 | 97 | 1003.9 |
| 20260507040024 | 12 | 239 | 1.6 | 3.2 | 0.03 | 1.07 | 1.07 | 97 | 1003.9 |
| 20260507034558 | 12 | 248 | 1.6 | 3.2 | 0.03 | 1.04 | 1.04 | 97 | 1003.8 |
| 20260507033026 | 12 | 311 | 0.0 | 3.2 | 0.03 | 1.04 | 1.04 | 97 | 1003.5 |
| 20260507031555 | 12 | 201 | 0.0 | 6.4 | 0.03 | 1.04 | 1.04 | 97 | 1003.3 |
| 20260507030020 | 12 | 182 | 1.6 | 3.2 | 0.03 | 1.04 | 1.04 | 97 | 1003.4 |